Airfield :
LOGIN :

Register | Disclaimer

   EN    FR    IT 

 










Legend :    VFR   Marginal VFR   IFR   Intensive IFR   Very Intensive IFR
Visi :
Ceiling :
>= 8 km
>= 3000ft
5 to 8 km
1000 to 3000 ft
1500m to 5 km
500 to 1000 ft
800 to 1500m
200 to 500 ft
< 800m
< 200 ft
Symbols :   Thunderstorms  Fog  Heavy snow  Heavy precipitations  Wind > 20 kt
SIGMETs :     Misc.  Thunderstorms  Icing  Turbulence  Mountain Waves  Volcanic Ashes






- Airport Elevation : 465 ft
- IATA code : LEJ


EDDP - Leipzig Halle

CURRENT METAR :
  • 311650Z 17013KT 9999 BKN022 13/11 Q1019 NOSIG

EXPIRED METARs :
  • 311620Z 16008KT 9999 BKN022 14/12 Q1020 NOSIG
  • 311550Z 14008KT 9999 BKN024 14/12 Q1019 NOSIG
  • 311520Z 13006KT 9999 BKN025 14/12 Q1020 NOSIG
  • 311450Z 15006KT 9999 FEW015 BKN025 15/12 Q1020 NOSIG
  • 311420Z 16005KT 9999 FEW014 BKN020 15/12 Q1020 NOSIG

TAF TAF EDDP
Valid from the 31 at 12:00 until the 01 at 12:00 UTC


311100Z 3112/0112 22005KT 9999 BKN012
BECMG 3112/3114 BKN020
BECMG 3113/3115 16005KT
BECMG 3118/3120 18010KT



MET'MAP, your aeronautical weather chart ! - Copyright ORBIFLY December 2007 - Disclaimer

ORBIFLY MET'MAP TEAM :

Programming & Development : Alexandra Zaïnal
Concept & original design : Baudouin d'Aumeries
Assistance for programming : Marc-Olivier Méhu
Technical & hardware support : Manuel Goepfert

Contact : metmap@orbifly.com




SOURCES & CREDITS :

   NOAA